createdAt,value
2017-02-06T00:00:25.010Z,76.42
2017-02-06T00:01:05.499Z,76.23
2017-02-06T00:01:45.937Z,76.81
2017-02-06T00:02:26.441Z,76.42
2017-02-06T00:03:06.930Z,76.42
2017-02-06T00:03:47.422Z,76.14
2017-02-06T00:04:27.871Z,76.71
2017-02-06T00:05:08.390Z,76.71
2017-02-06T00:05:48.873Z,76.81
2017-02-06T00:06:29.341Z,76.71
2017-02-06T00:07:09.847Z,77.28
2017-02-06T00:07:50.348Z,77
2017-02-06T00:08:30.863Z,76.52
2017-02-06T00:09:11.417Z,76.71
2017-02-06T00:09:51.871Z,76.52
2017-02-06T00:10:32.346Z,76.52
2017-02-06T00:11:12.903Z,76.23
2017-02-06T00:11:53.359Z,76.61
2017-02-06T00:12:33.843Z,76.61
2017-02-06T00:13:14.358Z,76.42
2017-02-06T00:13:54.820Z,76.33
2017-02-06T00:14:35.355Z,76.42
2017-02-06T00:15:15.868Z,75.76
2017-02-06T00:15:56.368Z,75.95
2017-02-06T00:16:36.812Z,75.95
2017-02-06T00:17:17.292Z,75.57
2017-02-06T00:17:57.805Z,75.47
2017-02-06T00:18:38.351Z,75.76
2017-02-06T00:19:18.818Z,75.67
2017-02-06T00:19:59.263Z,76.81
2017-02-06T00:20:39.758Z,76.9
2017-02-06T00:21:20.224Z,76.71
2017-02-06T00:22:00.713Z,76.71
2017-02-06T00:22:41.225Z,76.52
2017-02-06T00:23:21.738Z,76.61
2017-02-06T00:24:02.283Z,76.9
2017-02-06T00:24:42.707Z,77
2017-02-06T00:25:23.190Z,76.71
2017-02-06T00:26:03.670Z,76.71
2017-02-06T00:26:44.228Z,76.9
2017-02-06T00:27:24.770Z,76.42
2017-02-06T00:28:05.465Z,76.9
2017-02-06T00:28:45.912Z,76.81
2017-02-06T00:29:26.417Z,76.9
2017-02-06T00:30:06.909Z,76.42
2017-02-06T00:30:47.625Z,76.71
2017-02-06T00:31:28.048Z,76.52
2017-02-06T00:32:08.500Z,77.09
2017-02-06T00:32:48.934Z,77.56
2017-02-06T00:33:29.544Z,77.66
2017-02-06T00:34:10.070Z,77.47
2017-02-06T00:34:51.236Z,77.47
2017-02-06T00:35:34.680Z,77.37
2017-02-06T00:36:19.179Z,77.37
2017-02-06T00:37:01.173Z,77.37
2017-02-06T00:37:44.676Z,76.81
2017-02-06T00:38:27.182Z,77.09
2017-02-06T00:39:10.391Z,76.61
2017-02-06T00:39:50.898Z,77.28
2017-02-06T00:40:31.445Z,77.47
2017-02-06T00:41:11.880Z,77.66
2017-02-06T00:41:52.385Z,77.95
2017-02-06T00:42:32.960Z,78.04
2017-02-06T00:43:13.468Z,77.95
2017-02-06T00:43:56.187Z,77.47
2017-02-06T00:44:35.919Z,77.47
2017-02-06T00:45:17.755Z,77.56
2017-02-06T00:46:00.677Z,77
2017-02-06T00:46:41.224Z,77
2017-02-06T00:47:22.752Z,76.61
2017-02-06T00:48:05.181Z,76.81
2017-02-06T00:48:47.675Z,77
2017-02-06T00:49:27.770Z,77
2017-02-06T00:50:09.674Z,76.71
2017-02-06T00:50:50.211Z,77.56
2017-02-06T00:51:31.192Z,77.76
2017-02-06T00:52:11.145Z,77.66
2017-02-06T00:52:51.622Z,77.85
2017-02-06T00:53:33.766Z,78.04
2017-02-06T00:54:17.758Z,77.76
2017-02-06T00:55:00.185Z,77.95
2017-02-06T00:55:42.706Z,77.37
2017-02-06T00:56:28.682Z,77.47
2017-02-06T00:57:11.689Z,76.9
2017-02-06T00:57:56.675Z,77.28
2017-02-06T00:58:41.678Z,76.71
2017-02-06T00:59:25.233Z,76.81
2017-02-06T01:00:09.675Z,77.28
2017-02-06T01:00:57.690Z,76.71
2017-02-06T01:01:38.677Z,77.28
2017-02-06T01:02:22.184Z,77.19
2017-02-06T01:03:04.191Z,77.56
2017-02-06T01:03:45.741Z,77
2017-02-06T01:04:28.686Z,77
2017-02-06T01:09:45.468Z,76.52
2017-02-06T01:15:21.201Z,77
2017-02-06T01:16:01.701Z,76.71
2017-02-06T01:16:42.166Z,76.61
2017-02-06T01:17:22.670Z,77
2017-02-06T01:18:03.197Z,76.86
2017-02-06T01:18:43.701Z,77.34
2017-02-06T01:19:24.224Z,77.47
2017-02-06T01:20:04.702Z,77.47
2017-02-06T01:20:45.159Z,77.56
2017-02-06T01:21:25.649Z,77
2017-02-06T01:22:06.184Z,77.28
2017-02-06T01:22:46.648Z,77.47
2017-02-06T01:23:27.181Z,77.28
2017-02-06T01:24:07.649Z,77.28
2017-02-06T01:24:48.185Z,77.09
2017-02-06T01:25:28.707Z,76.71
2017-02-06T01:26:09.195Z,76.42
2017-02-06T01:28:02.318Z,76.81
2017-02-06T01:28:42.844Z,77.09
2017-02-06T01:29:23.355Z,77.47
2017-02-06T01:30:03.845Z,77.66
2017-02-06T01:30:44.373Z,77.62
2017-02-06T01:31:24.863Z,77.24
2017-02-06T01:32:05.410Z,77.37
2017-02-06T01:32:45.851Z,77.91
2017-02-06T01:33:26.346Z,77.62
2017-02-06T01:34:06.853Z,78
2017-02-06T01:34:47.357Z,78.1
2017-02-06T01:35:27.859Z,77.91
2017-02-06T01:36:08.356Z,78.1
2017-02-06T01:36:48.856Z,77.53
2017-02-06T01:37:29.366Z,77.62
2017-02-06T01:38:09.823Z,77.72
2017-02-06T01:38:50.331Z,78
2017-02-06T01:39:30.775Z,78.1
2017-02-06T01:40:11.280Z,77.72
2017-02-06T01:40:51.749Z,77.72
2017-02-06T01:41:32.274Z,78.1
2017-02-06T01:42:12.691Z,78
2017-02-06T01:42:53.202Z,77.81
2017-02-06T01:43:33.696Z,77.34
2017-02-06T01:44:14.218Z,77.81
2017-02-06T01:44:54.688Z,77.72
2017-02-06T01:45:35.168Z,77.72
2017-02-06T01:46:15.652Z,78
2017-02-06T01:46:56.189Z,77.91
2017-02-06T01:47:36.684Z,77.81
2017-02-06T01:48:17.169Z,77.34
2017-02-06T01:48:57.679Z,77.56
2017-02-06T01:49:38.126Z,77.37
2017-02-06T01:50:18.621Z,77.43
2017-02-06T01:50:59.137Z,76.86
2017-02-06T01:51:39.604Z,76.9
2017-02-06T01:52:20.103Z,77.24
2017-02-06T01:53:00.611Z,76.86
2017-02-06T01:53:41.237Z,76.81
2017-02-06T01:54:21.700Z,77.43
2017-02-06T01:55:02.229Z,77.53
2017-02-06T01:55:42.733Z,77.34
2017-02-06T01:56:23.241Z,77.43
2017-02-06T01:57:03.726Z,77.53
2017-02-06T01:57:44.239Z,77.56
2017-02-06T01:58:24.721Z,77.09
2017-02-06T01:59:05.245Z,76.96
2017-02-06T01:59:45.692Z,76.52
2017-02-06T02:00:26.180Z,76.61
2017-02-06T02:01:06.691Z,77.19
2017-02-06T02:01:47.163Z,76.52
2017-02-06T02:02:27.662Z,76.86
2017-02-06T02:03:08.153Z,76.61
2017-02-06T02:03:48.661Z,76.52
2017-02-06T02:04:29.153Z,77.43
2017-02-06T02:05:09.618Z,77.34
2017-02-06T02:05:50.122Z,77.72
2017-02-06T02:06:30.583Z,77.43
2017-02-06T02:07:11.073Z,77.72
2017-02-06T02:07:51.571Z,77.62
2017-02-06T02:08:32.063Z,77.72
2017-02-06T02:09:12.585Z,77.53
2017-02-06T02:09:53.032Z,77.53
2017-02-06T02:10:33.509Z,77.76
2017-02-06T02:11:14.031Z,77.19
2017-02-06T02:11:54.522Z,76.9
2017-02-06T02:12:34.972Z,76.9
2017-02-06T02:13:15.484Z,77.09
2017-02-06T02:13:55.994Z,77.28
2017-02-06T02:14:36.472Z,77.47
2017-02-06T02:15:17.065Z,77.24
2017-02-06T02:15:57.584Z,77.66
2017-02-06T02:16:38.104Z,77.34
2017-02-06T02:17:18.571Z,77.34
2017-02-06T02:17:59.080Z,78.1
2017-02-06T02:18:39.560Z,77.81
2017-02-06T02:19:20.090Z,77.34
2017-02-06T02:20:00.564Z,78
2017-02-06T02:20:41.082Z,77.91
2017-02-06T02:21:21.562Z,77.28
2017-02-06T02:22:02.068Z,76.9
2017-02-06T02:22:42.570Z,77.47
2017-02-06T02:23:23.088Z,77
2017-02-06T02:24:03.553Z,76.52
2017-02-06T02:24:44.055Z,76.71
2017-02-06T02:25:24.533Z,77
2017-02-06T02:26:05.011Z,76.42
2017-02-06T02:26:45.520Z,76.61
2017-02-06T02:27:26.021Z,76.81
2017-02-06T02:28:06.553Z,76.42
2017-02-06T02:28:47.025Z,76.33
2017-02-06T02:29:27.475Z,76.33
2017-02-06T02:30:07.979Z,76.42
2017-02-06T02:30:48.476Z,76.52
2017-02-06T02:31:28.965Z,76.71
2017-02-06T02:32:09.461Z,76.9
2017-02-06T02:32:49.969Z,77
2017-02-06T02:33:30.472Z,76.71
2017-02-06T02:34:10.971Z,76.52
2017-02-06T02:34:51.539Z,76.33
2017-02-06T02:35:32.021Z,76.81
2017-02-06T02:36:12.522Z,76.42
2017-02-06T02:36:53.005Z,76.81
2017-02-06T02:37:33.480Z,76.61
2017-02-06T02:38:13.998Z,76.71
2017-02-06T02:38:54.528Z,77.28
2017-02-06T02:39:35.020Z,77.62
2017-02-06T02:40:15.506Z,78
2017-02-06T02:40:56.000Z,77.56
2017-02-06T02:41:36.493Z,77.19
2017-02-06T02:42:16.980Z,76.81
2017-02-06T02:42:57.448Z,77.43
2017-02-06T02:43:37.959Z,77.62
2017-02-06T02:44:18.464Z,77.91
2017-02-06T02:44:58.964Z,78.1
2017-02-06T02:45:39.455Z,78.38
2017-02-06T02:46:19.959Z,77.62
2017-02-06T02:47:00.465Z,77.95
2017-02-06T02:47:40.975Z,78.04
2017-02-06T02:48:21.454Z,77.28
2017-02-06T02:49:01.968Z,77.37
2017-02-06T02:49:42.466Z,77.28
2017-02-06T02:50:22.949Z,77.28
2017-02-06T02:51:03.421Z,77.09
2017-02-06T02:51:43.954Z,76.57
2017-02-06T02:52:24.423Z,76.96
2017-02-06T02:53:04.955Z,77.53
2017-02-06T02:53:45.424Z,76.9
2017-02-06T02:54:25.953Z,76.61
2017-02-06T02:55:06.400Z,76.52
2017-02-06T02:55:46.900Z,76.71
2017-02-06T02:56:27.411Z,76.71
2017-02-06T02:57:07.938Z,76.67
2017-02-06T02:57:48.436Z,76.71
2017-02-06T02:58:28.961Z,76.81
2017-02-06T02:59:09.464Z,76.9
2017-02-06T02:59:49.938Z,77
2017-02-06T03:00:30.414Z,76.71
2017-02-06T03:01:10.910Z,76.52
2017-02-06T03:01:51.412Z,76.52
2017-02-06T03:02:31.895Z,76.23
2017-02-06T03:03:12.409Z,76.42
2017-02-06T03:03:52.902Z,76.61
2017-02-06T03:04:33.393Z,76.9
2017-02-06T03:05:13.839Z,76.9
2017-02-06T03:05:54.322Z,76.52
2017-02-06T03:06:34.839Z,76.9
2017-02-06T03:07:15.335Z,76.61
2017-02-06T03:07:55.855Z,76.61
2017-02-06T03:08:36.318Z,76.52
2017-02-06T03:09:16.860Z,76.71
2017-02-06T03:09:57.323Z,76.71
2017-02-06T03:10:37.809Z,76.71
2017-02-06T03:11:18.328Z,76.81
2017-02-06T03:11:58.759Z,76.81
2017-02-06T03:12:39.228Z,77
2017-02-06T03:13:19.723Z,76.81
2017-02-06T03:14:00.215Z,76.9
2017-02-06T03:14:40.715Z,76.61
2017-02-06T03:15:21.418Z,76.61
2017-02-06T03:16:01.917Z,76.61
2017-02-06T03:16:42.385Z,76.52
2017-02-06T03:17:22.894Z,76.33
2017-02-06T03:18:03.393Z,76.42
2017-02-06T03:18:43.896Z,76.71
2017-02-06T03:19:24.438Z,76.23
2017-02-06T03:20:04.898Z,75.95
2017-02-06T03:20:45.370Z,75.67
2017-02-06T03:21:25.883Z,75.76
2017-02-06T03:22:06.382Z,75.85
2017-02-06T03:22:46.843Z,76.04
2017-02-06T03:23:27.345Z,76.42
2017-02-06T03:24:07.815Z,76.52
2017-02-06T03:24:48.273Z,76.9
2017-02-06T03:25:28.846Z,76.81
2017-02-06T03:26:09.270Z,76.42
2017-02-06T03:26:49.791Z,76.81
2017-02-06T03:27:30.266Z,77
2017-02-06T03:28:10.743Z,77
2017-02-06T03:28:51.277Z,77.24
2017-02-06T03:29:31.771Z,78.1
2017-02-06T03:30:12.241Z,77.43
2017-02-06T03:30:52.725Z,77.66
2017-02-06T03:31:33.219Z,77.28
2017-02-06T03:32:13.689Z,77.56
2017-02-06T03:32:54.210Z,78
2017-02-06T03:33:34.699Z,78
2017-02-06T03:34:15.196Z,77.81
2017-02-06T03:34:55.697Z,77.81
2017-02-06T03:35:36.203Z,77.91
2017-02-06T03:36:20.637Z,77.91
2017-02-06T03:37:01.097Z,78
2017-02-06T03:37:45.367Z,77.72
2017-02-06T03:38:25.877Z,78.67
2017-02-06T03:39:06.379Z,78.48
2017-02-06T03:39:46.862Z,78.48
2017-02-06T03:40:27.361Z,78.29
2017-02-06T03:41:07.888Z,78.38
2017-02-06T03:41:48.385Z,77.91
2017-02-06T03:42:28.881Z,77.81
2017-02-06T03:43:09.391Z,77.81
2017-02-06T03:43:49.879Z,77.62
2017-02-06T03:44:30.385Z,77.34
2017-02-06T03:45:10.856Z,77.24
2017-02-06T03:45:51.373Z,77.62
2017-02-06T03:46:31.842Z,77.34
2017-02-06T03:47:12.402Z,77.43
2017-02-06T03:47:52.881Z,77.34
2017-02-06T03:48:38.199Z,77.43
2017-02-06T03:49:18.706Z,77.56
2017-02-06T03:49:59.185Z,77
2017-02-06T03:50:39.681Z,77.15
2017-02-06T03:51:20.197Z,76.76
2017-02-06T03:52:00.674Z,77.43
2017-02-06T03:52:41.149Z,77.53
2017-02-06T03:53:21.690Z,77.34
2017-02-06T03:54:02.154Z,77.43
2017-02-06T03:54:42.674Z,77.37
2017-02-06T03:55:23.128Z,77
2017-02-06T03:56:03.662Z,77.37
2017-02-06T03:56:44.133Z,77.09
2017-02-06T03:57:24.655Z,77.24
2017-02-06T03:58:05.167Z,77.43
2017-02-06T03:58:45.661Z,77.62
2017-02-06T03:59:26.162Z,77.53
2017-02-06T04:00:06.626Z,77.53
2017-02-06T04:00:47.100Z,77.53
2017-02-06T04:01:27.613Z,77.53
2017-02-06T04:02:08.062Z,76.96
2017-02-06T04:02:48.574Z,77.24
2017-02-06T04:03:29.029Z,77.05
2017-02-06T04:04:09.561Z,76.61
2017-02-06T04:04:50.058Z,76.76
2017-02-06T04:05:30.547Z,76.48
2017-02-06T04:06:11.064Z,76.71
2017-02-06T04:06:51.534Z,76.52
2017-02-06T04:07:32.010Z,76.61
2017-02-06T04:08:12.544Z,76.96
2017-02-06T04:08:53.037Z,76.86
2017-02-06T04:09:33.518Z,77.53
2017-02-06T04:10:14.014Z,76.9
2017-02-06T04:10:54.550Z,77.09
2017-02-06T04:11:34.973Z,76.48
2017-02-06T04:12:15.483Z,76.67
2017-02-06T04:12:55.996Z,76.42
2017-02-06T04:13:36.521Z,76.42
2017-02-06T04:14:17.031Z,76.71
2017-02-06T04:14:57.502Z,76.71
2017-02-06T04:15:37.984Z,76.48
2017-02-06T04:16:18.538Z,76.9
2017-02-06T04:16:59.022Z,76.76
2017-02-06T04:17:39.467Z,76.76
2017-02-06T04:18:19.990Z,77.24
2017-02-06T04:19:00.462Z,77.24
2017-02-06T04:19:40.947Z,77.15
2017-02-06T04:20:21.428Z,77.72
2017-02-06T04:21:01.942Z,77.62
2017-02-06T04:21:42.418Z,78
2017-02-06T04:22:22.957Z,77.62
2017-02-06T04:23:03.430Z,77.47
2017-02-06T04:23:43.916Z,76.76
2017-02-06T04:24:24.430Z,76.61
2017-02-06T04:25:04.912Z,76.61
2017-02-06T04:25:45.435Z,76.48
2017-02-06T04:26:25.907Z,76.57
2017-02-06T04:27:06.443Z,76.57
2017-02-06T04:27:47.118Z,76.96
2017-02-06T04:28:27.613Z,76.81
2017-02-06T04:29:08.111Z,76.42
2017-02-06T04:29:48.605Z,76.33
2017-02-06T04:30:29.092Z,76.42
2017-02-06T04:31:09.605Z,75.57
2017-02-06T04:31:50.103Z,75.95
2017-02-06T04:32:30.622Z,76.39
2017-02-06T04:33:11.113Z,76.39
2017-02-06T04:33:51.593Z,76.67
2017-02-06T04:34:32.043Z,76.57
2017-02-06T04:35:12.535Z,76.57
2017-02-06T04:35:53.047Z,76.67
2017-02-06T04:36:33.517Z,76.86
2017-02-06T04:37:14.058Z,77.05
2017-02-06T04:37:54.529Z,76.57
2017-02-06T04:38:35.019Z,77.34
2017-02-06T04:39:15.507Z,77.43
2017-02-06T04:39:55.976Z,77.34
2017-02-06T04:40:36.463Z,76.96
2017-02-06T04:41:16.958Z,76.86
2017-02-06T04:41:57.493Z,77.15
2017-02-06T04:42:37.992Z,76.86
2017-02-06T04:43:18.506Z,76.67
2017-02-06T04:43:58.981Z,76.96
2017-02-06T04:44:39.445Z,77.24
2017-02-06T04:45:19.938Z,77.34
2017-02-06T04:46:00.428Z,77.34
2017-02-06T04:46:40.934Z,77.62
2017-02-06T04:47:21.421Z,77.24
2017-02-06T04:48:01.942Z,77.62
2017-02-06T04:48:42.440Z,77.62
2017-02-06T04:49:22.917Z,77.34
2017-02-06T04:50:03.422Z,77.24
2017-02-06T04:50:43.947Z,76.67
2017-02-06T04:51:24.441Z,76.29
2017-02-06T04:52:04.890Z,76.48
2017-02-06T04:52:45.417Z,76.29
2017-02-06T04:53:25.878Z,76.42
2017-02-06T04:54:06.384Z,76.33
2017-02-06T04:54:46.886Z,76.39
2017-02-06T04:55:27.384Z,76.67
2017-02-06T04:56:07.873Z,76.96
2017-02-06T04:56:48.379Z,76.76
2017-02-06T04:57:28.934Z,76.96
2017-02-06T04:58:09.509Z,76.67
2017-02-06T04:58:50.492Z,76.67
2017-02-06T04:59:33.014Z,76.39
2017-02-06T05:00:13.497Z,76.57
2017-02-06T05:00:53.168Z,76.67
2017-02-06T05:01:34.504Z,76.2
2017-02-06T05:02:14.996Z,76.29
2017-02-06T05:02:54.651Z,76.67
2017-02-06T05:03:35.133Z,76.2
2017-02-06T05:04:15.670Z,76.57
2017-02-06T05:04:56.193Z,76.39
2017-02-06T05:05:37.259Z,76.57
2017-02-06T05:06:17.735Z,76.57
2017-02-06T05:06:58.249Z,76.57
2017-02-06T05:07:38.788Z,76.76
2017-02-06T05:08:19.289Z,76.86
2017-02-06T05:08:59.732Z,76.48
2017-02-06T05:09:40.216Z,76.48
2017-02-06T05:10:20.731Z,76.57
2017-02-06T05:11:01.284Z,76.57
2017-02-06T05:11:41.720Z,76.76
2017-02-06T05:12:22.704Z,77.72
2017-02-06T05:13:03.252Z,76.67
2017-02-06T05:13:43.810Z,76.86
2017-02-06T05:14:24.309Z,77.05
2017-02-06T05:15:05.499Z,77.34
2017-02-06T05:15:45.997Z,77.24
2017-02-06T05:16:25.757Z,77.62
2017-02-06T05:17:06.306Z,77.81
2017-02-06T05:17:46.733Z,77.2
2017-02-06T05:18:27.387Z,77.49
2017-02-06T05:19:07.864Z,77.53
2017-02-06T05:19:49.993Z,76.76
2017-02-06T05:20:31.003Z,76.29
2017-02-06T05:21:10.933Z,76.01
2017-02-06T05:21:51.999Z,75.53
2017-02-06T05:23:51.576Z,74.48
2017-02-06T05:24:31.447Z,74.48
2017-02-06T05:25:11.976Z,73.91
2017-02-06T05:25:53.083Z,74.1
2017-02-06T05:26:35.082Z,74.1
2017-02-06T05:27:15.581Z,73.82
2017-02-06T05:27:55.252Z,73.72
2017-02-06T05:28:35.711Z,73.91
2017-02-06T05:29:16.239Z,72.86
2017-02-06T05:29:56.829Z,73.06
2017-02-06T05:30:37.365Z,73.25
2017-02-06T05:31:18.352Z,73.25
2017-02-06T05:31:58.837Z,72.77
2017-02-06T05:32:40.089Z,72.86
2017-02-06T05:33:19.858Z,73.63
2017-02-06T05:34:00.595Z,72.67
2017-02-06T05:34:41.109Z,72.2
2017-02-06T05:35:21.803Z,72.39
2017-02-06T05:36:04.084Z,72.39
2017-02-06T05:36:44.579Z,72.11
2017-02-06T05:37:24.269Z,72.11
2017-02-06T05:38:04.770Z,72.67
2017-02-06T05:38:46.080Z,72.49
2017-02-06T05:39:26.598Z,72.2
2017-02-06T05:40:07.154Z,71.82
2017-02-06T05:40:48.086Z,71.86
2017-02-06T05:41:29.741Z,71.72
2017-02-06T05:42:11.581Z,71.06
2017-02-06T05:42:53.092Z,71.06
2017-02-06T05:43:32.683Z,71.72
2017-02-06T05:44:15.585Z,71.44
2017-02-06T05:44:56.727Z,71.82
2017-02-06T05:45:37.814Z,71.06
2017-02-06T05:46:19.588Z,70.77
2017-02-06T05:47:00.083Z,71.25
2017-02-06T05:47:42.320Z,70.77
2017-02-06T05:48:23.459Z,71.06
2017-02-06T05:49:03.954Z,70.87
2017-02-06T05:49:44.483Z,70.77
2017-02-06T05:50:24.902Z,70.77
2017-02-06T05:51:06.113Z,70.49
2017-02-06T05:51:46.633Z,70.77
2017-02-06T05:52:27.129Z,70.3
2017-02-06T05:53:09.091Z,70.87
2017-02-06T05:53:50.589Z,70.58
2017-02-06T05:54:32.086Z,71.06
2017-02-06T05:55:12.590Z,70.87
2017-02-06T05:55:53.627Z,71.53
2017-02-06T05:56:38.091Z,70.97
2017-02-06T05:57:19.586Z,70.77
2017-02-06T05:58:01.087Z,71.82
2017-02-06T05:58:49.136Z,71.15
2017-02-06T05:59:30.213Z,70.77
2017-02-06T06:00:10.747Z,71.53
2017-02-06T06:00:51.221Z,70.77
2017-02-06T06:01:31.733Z,70.77
2017-02-06T06:02:12.231Z,70.77
2017-02-06T06:02:52.773Z,70.97
2017-02-06T06:03:33.223Z,71.53
2017-02-06T06:04:13.712Z,71.44
2017-02-06T06:04:54.255Z,72.01
2017-02-06T06:05:34.727Z,71.25
2017-02-06T06:06:15.349Z,71.25
2017-02-06T06:06:55.774Z,71.82
2017-02-06T06:07:36.277Z,71.63
2017-02-06T06:08:16.755Z,71.44
2017-02-06T06:08:57.254Z,71.06
2017-02-06T06:09:37.810Z,70.87
2017-02-06T06:10:18.273Z,70.97
2017-02-06T06:10:58.764Z,71.82
2017-02-06T06:11:39.285Z,71.25
2017-02-06T06:12:19.788Z,70.68
2017-02-06T06:13:00.272Z,70.68
2017-02-06T06:13:40.726Z,70.77
2017-02-06T06:14:21.247Z,71.28
2017-02-06T06:15:01.723Z,71.06
2017-02-06T06:15:42.269Z,71.25
2017-02-06T06:16:22.717Z,72.01
2017-02-06T06:17:03.226Z,71.06
2017-02-06T06:17:43.760Z,70.77
2017-02-06T06:18:24.336Z,70.77
2017-02-06T06:19:04.809Z,71.15
2017-02-06T06:19:45.323Z,71.25
2017-02-06T06:20:25.821Z,70.58
2017-02-06T06:21:06.313Z,71.53
2017-02-06T06:21:46.822Z,71.25
2017-02-06T06:22:27.965Z,71.63
2017-02-06T06:23:09.042Z,71.91
2017-02-06T06:23:50.401Z,71.44
2017-02-06T06:24:30.860Z,71.44
2017-02-06T06:25:11.348Z,71.72
2017-02-06T06:25:51.837Z,71.72
2017-02-06T06:26:32.340Z,71.82
2017-02-06T06:27:12.853Z,72.2
2017-02-06T06:27:53.364Z,71.63
2017-02-06T06:28:34.605Z,71.82
2017-02-06T06:29:14.409Z,71.72
2017-02-06T06:29:54.904Z,70.87
2017-02-06T06:30:35.395Z,70.87
2017-02-06T06:31:15.891Z,71.15
2017-02-06T06:31:56.453Z,71.25
2017-02-06T06:32:36.961Z,72.3
2017-02-06T06:33:17.499Z,73.06
2017-02-06T06:33:57.965Z,73.15
2017-02-06T06:34:38.496Z,72.77
2017-02-06T06:35:18.958Z,73.15
2017-02-06T06:36:00.108Z,73.53
2017-02-06T06:36:39.908Z,73.34
2017-02-06T06:37:21.013Z,73.63
2017-02-06T06:38:02.285Z,73.63
2017-02-06T06:38:45.096Z,74.1
2017-02-06T06:39:25.236Z,72.77
2017-02-06T06:40:06.600Z,72.86
2017-02-06T06:40:48.097Z,73.53
2017-02-06T06:41:28.002Z,74.1
2017-02-06T06:42:08.453Z,74.2
2017-02-06T06:42:48.951Z,74.87
2017-02-06T06:43:30.108Z,73.34
2017-02-06T06:44:11.103Z,73.25
2017-02-06T06:44:51.793Z,72.67
2017-02-06T06:45:32.277Z,72.11
2017-02-06T06:46:12.734Z,71.91
2017-02-06T06:46:53.227Z,73.44
2017-02-06T06:47:33.744Z,84.56
2017-02-06T06:48:15.107Z,91.56
2017-02-06T06:48:56.107Z,92.13
2017-02-06T06:49:36.050Z,89.7
2017-02-06T06:50:20.102Z,85.9
2017-02-06T06:51:01.967Z,83.33
2017-02-06T06:51:42.489Z,81.14
2017-02-06T06:52:22.981Z,77.62
2017-02-06T06:53:03.495Z,75.24
2017-02-06T06:53:44.020Z,74.01
2017-02-06T06:54:24.502Z,73.06
2017-02-06T06:55:05.927Z,72.49
2017-02-06T06:55:47.104Z,72.96
2017-02-06T06:56:26.943Z,74.1
2017-02-06T06:57:07.422Z,74.29
2017-02-06T06:57:48.609Z,74.1
2017-02-06T06:58:29.982Z,73.63
2017-02-06T06:59:11.108Z,74.1
2017-02-06T06:59:52.622Z,73.25
2017-02-06T07:00:34.021Z,73.53
2017-02-06T07:01:15.680Z,73.82
2017-02-06T07:01:56.189Z,73.82
2017-02-06T07:02:38.718Z,74.2
2017-02-06T07:03:20.107Z,74.77
2017-02-06T07:03:59.739Z,73.53
2017-02-06T07:04:40.247Z,72.86
2017-02-06T07:05:22.119Z,72.11
2017-02-06T07:06:02.604Z,71.82
2017-02-06T07:06:42.600Z,72.58
2017-02-06T07:07:24.615Z,72.96
2017-02-06T07:08:06.181Z,73.63
2017-02-06T07:08:46.619Z,73.82
2017-02-06T07:09:28.624Z,73.72
2017-02-06T07:10:10.111Z,74.67
2017-02-06T07:10:50.687Z,74.87
2017-02-06T07:11:31.773Z,74.39
2017-02-06T07:12:12.280Z,75.43
2017-02-06T07:12:53.611Z,75.91
2017-02-06T07:13:36.607Z,76.39
2017-02-06T07:14:21.107Z,77.24
2017-02-06T07:15:03.107Z,74.48
2017-02-06T07:15:44.021Z,73.63
2017-02-06T07:16:24.542Z,72.86
2017-02-06T07:17:06.607Z,72.2
2017-02-06T07:17:48.644Z,72.3
2017-02-06T07:18:45.847Z,73.53
2017-02-06T07:19:28.635Z,81.9
2017-02-06T07:20:09.617Z,81.43
2017-02-06T07:20:51.197Z,85.42
2017-02-06T07:21:32.699Z,91.94
2017-02-06T07:22:15.607Z,92.6
2017-02-06T07:22:56.164Z,88.42
2017-02-06T07:23:38.619Z,90.61
2017-02-06T07:24:19.312Z,88.18
2017-02-06T07:25:04.110Z,94.13
2017-02-06T07:25:45.111Z,92.79
2017-02-06T07:26:30.630Z,90.13
2017-02-06T07:27:12.618Z,85.33
2017-02-06T07:27:53.125Z,81.33
2017-02-06T07:28:37.630Z,84.23
2017-02-06T07:29:19.107Z,84.89
2017-02-06T07:30:01.117Z,81.18
2017-02-06T07:30:46.125Z,76.86
2017-02-06T07:31:28.117Z,77.24
2017-02-06T07:32:11.129Z,76.86
2017-02-06T07:33:07.110Z,78.14
2017-02-06T07:33:47.109Z,78.9
2017-02-06T07:34:27.621Z,80.52
2017-02-06T07:35:09.634Z,81.81
2017-02-06T07:35:50.116Z,88.13
2017-02-06T07:36:31.123Z,87.46
2017-02-06T07:37:14.620Z,88.23
2017-02-06T07:37:57.123Z,91.17
2017-02-06T07:38:39.612Z,95.84
2017-02-06T07:39:22.147Z,94.6
2017-02-06T07:40:08.617Z,92.89
2017-02-06T07:40:50.615Z,92.99
2017-02-06T07:41:30.618Z,91.37
2017-02-06T07:42:12.121Z,90.51
2017-02-06T07:42:53.613Z,91.37
2017-02-06T07:43:33.937Z,87.94
2017-02-06T07:44:17.187Z,82.9
2017-02-06T07:44:59.825Z,80.52
2017-02-06T07:45:45.625Z,77.66
2017-02-06T07:46:30.618Z,75.91
2017-02-06T07:47:15.646Z,75.15
2017-02-06T07:47:59.133Z,75.53
2017-02-06T07:48:45.615Z,75.85
2017-02-06T07:49:28.114Z,74.48
2017-02-06T07:50:10.631Z,73.15
2017-02-06T07:50:59.625Z,73.63
2017-02-06T07:51:46.136Z,73.1
2017-02-06T07:52:33.116Z,73.95
2017-02-06T07:53:20.625Z,73.95
2017-02-06T07:54:06.124Z,74.14
2017-02-06T07:54:54.628Z,74.33
2017-02-06T07:55:38.637Z,74.99
2017-02-06T07:56:21.630Z,73.57
2017-02-06T07:57:06.137Z,73.76
2017-02-06T07:57:51.163Z,73.66
2017-02-06T07:58:33.714Z,72.42
2017-02-06T07:59:18.623Z,72.42
2017-02-06T08:00:04.630Z,73.85
2017-02-06T08:00:50.288Z,73.76
2017-02-06T08:01:37.151Z,72.71
2017-02-06T08:02:26.129Z,71.57
2017-02-06T08:03:15.120Z,73.19
2017-02-06T08:03:56.629Z,76.61
2017-02-06T08:04:39.635Z,77
2017-02-06T08:05:23.687Z,82.23
2017-02-06T08:06:15.661Z,90.13
2017-02-06T08:07:00.129Z,91.65
2017-02-06T08:07:51.155Z,86.7
2017-02-06T08:08:35.620Z,79.19
2017-02-06T08:09:18.621Z,79.09
2017-02-06T08:11:09.133Z,89.41
2017-02-06T08:11:53.126Z,93.41
2017-02-06T08:12:39.134Z,94.27
2017-02-06T08:13:24.621Z,94.84
2017-02-06T08:14:11.129Z,96.27
2017-02-06T08:14:59.135Z,92.08
2017-02-06T08:15:49.123Z,92.84
2017-02-06T08:16:34.637Z,94.08
2017-02-06T08:18:42.682Z,80.52
2017-02-06T08:19:31.181Z,76.71
2017-02-06T08:20:13.700Z,74.8
2017-02-06T08:21:11.700Z,73.38
2017-02-06T08:23:04.307Z,93.13
2017-02-06T08:23:48.304Z,88.08
2017-02-06T08:26:07.918Z,94.08
2017-02-06T08:28:24.574Z,92.08
2017-02-06T08:29:10.601Z,89.79
2017-02-06T08:29:55.075Z,85.51
2017-02-06T08:30:36.089Z,86.84
2017-02-06T08:31:18.572Z,83.61
2017-02-06T08:31:59.078Z,79.89
2017-02-06T08:32:40.299Z,77.89
2017-02-06T08:33:23.571Z,75.42
2017-02-06T08:34:06.092Z,73.99
2017-02-06T08:34:46.202Z,72.85
2017-02-06T08:35:31.068Z,72.37
2017-02-06T08:36:12.570Z,72.27
2017-02-06T08:36:54.571Z,70.84
2017-02-06T08:37:45.571Z,71.8
2017-02-06T08:38:31.070Z,71.8
2017-02-06T08:39:14.621Z,70.47
2017-02-06T08:40:01.586Z,69.48
2017-02-06T08:40:44.112Z,69.6
2017-02-06T08:41:34.582Z,69.89
2017-02-06T08:42:20.102Z,70.94
2017-02-06T08:43:07.072Z,70.84
2017-02-06T08:43:52.077Z,72.75
2017-02-06T08:45:52.734Z,72.97
2017-02-06T08:46:41.724Z,73.74
2017-02-06T08:47:27.212Z,80.41
2017-02-06T08:49:23.322Z,95.56
2017-02-06T08:51:32.816Z,92.6
2017-02-06T08:53:43.938Z,76.65
2017-02-06T08:54:27.967Z,79.07
2017-02-06T08:55:13.948Z,84.12
2017-02-06T08:56:06.440Z,84.12
2017-02-06T08:57:13.455Z,75.7
2017-02-06T08:59:06.015Z,70.56
2017-02-06T08:59:54.007Z,69.99
2017-02-06T09:02:14.063Z,88.7
2017-02-06T09:06:36.654Z,78.03
2017-02-06T09:08:35.064Z,73.55
2017-02-06T09:09:15.569Z,70.88
2017-02-06T09:09:56.087Z,70.15
2017-02-06T09:10:36.565Z,68.91
2017-02-06T09:11:17.111Z,68.5
2017-02-06T09:11:57.618Z,68.98
2017-02-06T09:12:38.058Z,68.21
2017-02-06T09:13:18.549Z,69.35
2017-02-06T09:13:59.090Z,69.29
2017-02-06T09:14:39.538Z,68.69
2017-02-06T09:15:20.064Z,69.07
2017-02-06T09:16:00.613Z,68.5
2017-02-06T09:16:41.080Z,68.53
2017-02-06T09:17:21.585Z,67.77
2017-02-06T09:18:02.077Z,69.01
2017-02-06T09:18:42.518Z,68.91
2017-02-06T09:19:23.005Z,68.44
2017-02-06T09:20:03.561Z,67.77
2017-02-06T09:20:44.035Z,67
2017-02-06T09:21:24.570Z,66.91
2017-02-06T09:22:05.097Z,66.05
2017-02-06T09:22:45.510Z,66.05
2017-02-06T09:23:25.994Z,66.05
2017-02-06T09:24:06.501Z,69.01
2017-02-06T09:24:46.997Z,67.86
2017-02-06T09:25:27.446Z,73.49
2017-02-06T09:26:08.035Z,74.16
2017-02-06T09:26:48.471Z,74.44
2017-02-06T09:27:29.066Z,75.87
2017-02-06T09:28:09.614Z,76.73